sensor_id;sensor_type;location;lat;lon;timestamp;temperature;humidity
19281;DHT22;9774;52.034;5.342;2023-12-14T00:00:14;10.90;69.40
19281;DHT22;9774;52.034;5.342;2023-12-14T00:02:42;10.90;69.40
19281;DHT22;9774;52.034;5.342;2023-12-14T00:05:11;10.90;69.40
19281;DHT22;9774;52.034;5.342;2023-12-14T00:07:38;10.90;69.40
19281;DHT22;9774;52.034;5.342;2023-12-14T00:10:06;10.80;69.20
19281;DHT22;9774;52.034;5.342;2023-12-14T00:12:33;10.80;69.20
19281;DHT22;9774;52.034;5.342;2023-12-14T00:15:00;10.80;69.30
19281;DHT22;9774;52.034;5.342;2023-12-14T00:17:27;10.80;69.30
19281;DHT22;9774;52.034;5.342;2023-12-14T00:19:54;10.80;69.40
19281;DHT22;9774;52.034;5.342;2023-12-14T00:22:22;10.80;69.40
19281;DHT22;9774;52.034;5.342;2023-12-14T00:24:50;10.80;69.40
19281;DHT22;9774;52.034;5.342;2023-12-14T00:27:17;10.80;69.40
19281;DHT22;9774;52.034;5.342;2023-12-14T00:29:44;10.80;69.40
19281;DHT22;9774;52.034;5.342;2023-12-14T00:32:11;10.80;69.40
19281;DHT22;9774;52.034;5.342;2023-12-14T00:34:38;10.80;69.40
19281;DHT22;9774;52.034;5.342;2023-12-14T00:37:05;10.80;69.40
19281;DHT22;9774;52.034;5.342;2023-12-14T00:39:34;10.80;69.40
19281;DHT22;9774;52.034;5.342;2023-12-14T00:42:01;10.70;69.30
19281;DHT22;9774;52.034;5.342;2023-12-14T00:44:28;10.70;69.10
19281;DHT22;9774;52.034;5.342;2023-12-14T00:46:55;10.70;69.00
19281;DHT22;9774;52.034;5.342;2023-12-14T00:49:24;10.60;69.00
19281;DHT22;9774;52.034;5.342;2023-12-14T00:51:53;10.60;69.10
19281;DHT22;9774;52.034;5.342;2023-12-14T00:54:20;10.60;69.00
19281;DHT22;9774;52.034;5.342;2023-12-14T00:56:48;10.60;69.10
19281;DHT22;9774;52.034;5.342;2023-12-14T00:59:15;10.50;69.10
19281;DHT22;9774;52.034;5.342;2023-12-14T01:01:42;10.50;69.20
19281;DHT22;9774;52.034;5.342;2023-12-14T01:04:09;10.50;69.30
19281;DHT22;9774;52.034;5.342;2023-12-14T01:06:36;10.50;69.20
19281;DHT22;9774;52.034;5.342;2023-12-14T01:09:03;10.50;69.20
19281;DHT22;9774;52.034;5.342;2023-12-14T01:11:30;10.50;69.20
19281;DHT22;9774;52.034;5.342;2023-12-14T01:13:59;10.50;69.30
19281;DHT22;9774;52.034;5.342;2023-12-14T01:16:26;10.50;69.40
19281;DHT22;9774;52.034;5.342;2023-12-14T01:18:53;10.40;69.30
19281;DHT22;9774;52.034;5.342;2023-12-14T01:21:20;10.40;69.30
19281;DHT22;9774;52.034;5.342;2023-12-14T01:23:47;10.40;69.30
19281;DHT22;9774;52.034;5.342;2023-12-14T01:26:14;10.40;70.00
19281;DHT22;9774;52.034;5.342;2023-12-14T01:28:41;10.40;69.40
19281;DHT22;9774;52.034;5.342;2023-12-14T01:31:09;10.40;69.40
19281;DHT22;9774;52.034;5.342;2023-12-14T01:33:36;10.40;69.40
19281;DHT22;9774;52.034;5.342;2023-12-14T01:36:04;10.40;69.30
19281;DHT22;9774;52.034;5.342;2023-12-14T01:38:31;10.40;69.40
19281;DHT22;9774;52.034;5.342;2023-12-14T01:40:58;10.40;69.30
19281;DHT22;9774;52.034;5.342;2023-12-14T01:43:27;10.40;69.30
19281;DHT22;9774;52.034;5.342;2023-12-14T01:45:54;10.40;69.20
19281;DHT22;9774;52.034;5.342;2023-12-14T01:48:22;10.40;69.30
19281;DHT22;9774;52.034;5.342;2023-12-14T01:50:49;10.40;69.30
19281;DHT22;9774;52.034;5.342;2023-12-14T01:53:16;10.40;69.30
19281;DHT22;9774;52.034;5.342;2023-12-14T01:55:43;10.40;69.30
19281;DHT22;9774;52.034;5.342;2023-12-14T01:58:10;10.40;69.20
19281;DHT22;9774;52.034;5.342;2023-12-14T02:00:40;10.40;69.30
19281;DHT22;9774;52.034;5.342;2023-12-14T02:03:11;10.40;69.30
19281;DHT22;9774;52.034;5.342;2023-12-14T02:05:40;10.40;69.30
19281;DHT22;9774;52.034;5.342;2023-12-14T02:08:07;10.40;69.30
19281;DHT22;9774;52.034;5.342;2023-12-14T02:10:35;10.40;69.40
19281;DHT22;9774;52.034;5.342;2023-12-14T02:13:02;10.40;69.40
19281;DHT22;9774;52.034;5.342;2023-12-14T02:15:29;10.40;69.40
19281;DHT22;9774;52.034;5.342;2023-12-14T02:17:56;10.40;69.40
19281;DHT22;9774;52.034;5.342;2023-12-14T02:20:23;10.40;69.40
19281;DHT22;9774;52.034;5.342;2023-12-14T02:22:52;10.40;69.40
19281;DHT22;9774;52.034;5.342;2023-12-14T02:25:21;10.40;69.40
19281;DHT22;9774;52.034;5.342;2023-12-14T02:27:49;10.40;69.30
19281;DHT22;9774;52.034;5.342;2023-12-14T02:30:18;10.40;69.30
19281;DHT22;9774;52.034;5.342;2023-12-14T02:32:45;10.40;69.20
19281;DHT22;9774;52.034;5.342;2023-12-14T02:35:12;10.40;69.20
19281;DHT22;9774;52.034;5.342;2023-12-14T02:37:39;10.40;69.20
19281;DHT22;9774;52.034;5.342;2023-12-14T02:40:09;10.40;69.20
19281;DHT22;9774;52.034;5.342;2023-12-14T02:42:37;10.40;69.20
19281;DHT22;9774;52.034;5.342;2023-12-14T02:45:05;10.50;69.20
19281;DHT22;9774;52.034;5.342;2023-12-14T02:47:34;10.40;69.10
19281;DHT22;9774;52.034;5.342;2023-12-14T02:50:00;10.40;69.10
19281;DHT22;9774;52.034;5.342;2023-12-14T02:52:28;10.40;69.00
19281;DHT22;9774;52.034;5.342;2023-12-14T02:54:55;10.40;68.90
19281;DHT22;9774;52.034;5.342;2023-12-14T02:57:23;10.40;68.90
19281;DHT22;9774;52.034;5.342;2023-12-14T02:59:50;10.40;68.90
19281;DHT22;9774;52.034;5.342;2023-12-14T03:02:17;10.40;69.00
19281;DHT22;9774;52.034;5.342;2023-12-14T03:04:44;10.40;69.10
19281;DHT22;9774;52.034;5.342;2023-12-14T03:07:11;10.40;69.10
19281;DHT22;9774;52.034;5.342;2023-12-14T03:09:39;10.40;69.10
19281;DHT22;9774;52.034;5.342;2023-12-14T03:12:09;10.50;69.10
19281;DHT22;9774;52.034;5.342;2023-12-14T03:14:38;10.50;69.80
19281;DHT22;9774;52.034;5.342;2023-12-14T03:17:06;10.50;69.10
19281;DHT22;9774;52.034;5.342;2023-12-14T03:19:38;10.50;69.10
19281;DHT22;9774;52.034;5.342;2023-12-14T03:22:06;10.50;69.00
19281;DHT22;9774;52.034;5.342;2023-12-14T03:24:35;10.50;69.00
19281;DHT22;9774;52.034;5.342;2023-12-14T03:27:03;10.50;68.90
19281;DHT22;9774;52.034;5.342;2023-12-14T03:29:31;10.50;68.90
19281;DHT22;9774;52.034;5.342;2023-12-14T03:31:59;10.50;69.00
19281;DHT22;9774;52.034;5.342;2023-12-14T03:34:26;10.50;69.00
19281;DHT22;9774;52.034;5.342;2023-12-14T03:36:53;10.50;69.00
19281;DHT22;9774;52.034;5.342;2023-12-14T03:39:20;10.50;69.00
19281;DHT22;9774;52.034;5.342;2023-12-14T03:41:48;10.50;69.00
19281;DHT22;9774;52.034;5.342;2023-12-14T03:44:15;10.50;69.00
19281;DHT22;9774;52.034;5.342;2023-12-14T03:46:42;10.50;69.00
19281;DHT22;9774;52.034;5.342;2023-12-14T03:49:10;10.50;68.90
19281;DHT22;9774;52.034;5.342;2023-12-14T03:51:37;10.50;68.90
19281;DHT22;9774;52.034;5.342;2023-12-14T03:54:04;10.50;68.90
19281;DHT22;9774;52.034;5.342;2023-12-14T03:56:31;10.50;68.80
19281;DHT22;9774;52.034;5.342;2023-12-14T03:58:58;10.50;68.80
19281;DHT22;9774;52.034;5.342;2023-12-14T04:01:25;10.50;68.90
19281;DHT22;9774;52.034;5.342;2023-12-14T04:03:52;10.50;68.90
19281;DHT22;9774;52.034;5.342;2023-12-14T04:06:20;10.50;68.90
19281;DHT22;9774;52.034;5.342;2023-12-14T04:08:47;10.50;68.90
19281;DHT22;9774;52.034;5.342;2023-12-14T04:11:14;10.50;68.90
19281;DHT22;9774;52.034;5.342;2023-12-14T04:13:41;10.50;69.00
19281;DHT22;9774;52.034;5.342;2023-12-14T04:16:08;10.50;69.00
19281;DHT22;9774;52.034;5.342;2023-12-14T04:18:35;10.50;69.00
19281;DHT22;9774;52.034;5.342;2023-12-14T04:21:03;10.60;69.00
19281;DHT22;9774;52.034;5.342;2023-12-14T04:23:33;10.60;69.00
19281;DHT22;9774;52.034;5.342;2023-12-14T04:26:00;10.60;69.00
19281;DHT22;9774;52.034;5.342;2023-12-14T04:28:26;10.60;69.00
19281;DHT22;9774;52.034;5.342;2023-12-14T04:30:53;10.60;69.00
19281;DHT22;9774;52.034;5.342;2023-12-14T04:33:20;10.60;68.90
19281;DHT22;9774;52.034;5.342;2023-12-14T04:35:47;10.60;68.90
19281;DHT22;9774;52.034;5.342;2023-12-14T04:38:14;10.60;68.70
19281;DHT22;9774;52.034;5.342;2023-12-14T04:40:42;10.60;68.70
19281;DHT22;9774;52.034;5.342;2023-12-14T04:43:09;10.50;68.60
19281;DHT22;9774;52.034;5.342;2023-12-14T04:45:36;10.50;68.60
19281;DHT22;9774;52.034;5.342;2023-12-14T04:48:04;10.50;68.60
19281;DHT22;9774;52.034;5.342;2023-12-14T04:50:31;10.50;68.50
19281;DHT22;9774;52.034;5.342;2023-12-14T04:52:58;10.50;68.50
19281;DHT22;9774;52.034;5.342;2023-12-14T04:55:25;10.50;68.40
19281;DHT22;9774;52.034;5.342;2023-12-14T04:57:53;10.50;68.40
19281;DHT22;9774;52.034;5.342;2023-12-14T05:00:21;10.50;68.50
19281;DHT22;9774;52.034;5.342;2023-12-14T05:02:48;10.50;68.50
19281;DHT22;9774;52.034;5.342;2023-12-14T05:05:15;10.40;68.50
19281;DHT22;9774;52.034;5.342;2023-12-14T05:07:42;10.40;68.50
19281;DHT22;9774;52.034;5.342;2023-12-14T05:10:09;10.40;68.60
19281;DHT22;9774;52.034;5.342;2023-12-14T05:12:36;10.40;68.60
19281;DHT22;9774;52.034;5.342;2023-12-14T05:15:06;10.40;68.60
19281;DHT22;9774;52.034;5.342;2023-12-14T05:17:34;10.40;68.50
19281;DHT22;9774;52.034;5.342;2023-12-14T05:20:02;10.40;68.50
19281;DHT22;9774;52.034;5.342;2023-12-14T05:22:30;10.40;68.50
19281;DHT22;9774;52.034;5.342;2023-12-14T05:24:57;10.40;68.40
19281;DHT22;9774;52.034;5.342;2023-12-14T05:27:24;10.40;68.40
19281;DHT22;9774;52.034;5.342;2023-12-14T05:29:51;10.40;68.40
19281;DHT22;9774;52.034;5.342;2023-12-14T05:32:19;10.40;68.40
19281;DHT22;9774;52.034;5.342;2023-12-14T05:34:46;10.40;69.10
19281;DHT22;9774;52.034;5.342;2023-12-14T05:37:13;10.30;68.30
19281;DHT22;9774;52.034;5.342;2023-12-14T05:39:41;10.30;68.30
19281;DHT22;9774;52.034;5.342;2023-12-14T05:42:08;10.30;68.30
19281;DHT22;9774;52.034;5.342;2023-12-14T05:44:35;10.30;68.30
19281;DHT22;9774;52.034;5.342;2023-12-14T05:47:02;10.30;68.30
19281;DHT22;9774;52.034;5.342;2023-12-14T05:49:31;10.30;68.30
19281;DHT22;9774;52.034;5.342;2023-12-14T05:51:59;10.30;68.40
19281;DHT22;9774;52.034;5.342;2023-12-14T05:54:26;10.20;68.30
19281;DHT22;9774;52.034;5.342;2023-12-14T05:56:53;10.20;68.30
19281;DHT22;9774;52.034;5.342;2023-12-14T05:59:20;10.20;68.30
19281;DHT22;9774;52.034;5.342;2023-12-14T06:01:47;10.20;68.40
19281;DHT22;9774;52.034;5.342;2023-12-14T06:04:14;10.20;68.40
19281;DHT22;9774;52.034;5.342;2023-12-14T06:06:42;10.20;68.40
19281;DHT22;9774;52.034;5.342;2023-12-14T06:09:09;10.20;68.30
19281;DHT22;9774;52.034;5.342;2023-12-14T06:11:36;10.20;68.40
19281;DHT22;9774;52.034;5.342;2023-12-14T06:14:03;10.10;68.30
19281;DHT22;9774;52.034;5.342;2023-12-14T06:16:30;10.10;68.20
19281;DHT22;9774;52.034;5.342;2023-12-14T06:18:57;10.10;68.20
19281;DHT22;9774;52.034;5.342;2023-12-14T06:21:24;10.10;68.20
19281;DHT22;9774;52.034;5.342;2023-12-14T06:23:55;10.10;68.20
19281;DHT22;9774;52.034;5.342;2023-12-14T06:26:24;10.10;68.30
19281;DHT22;9774;52.034;5.342;2023-12-14T06:28:51;10.10;68.40
19281;DHT22;9774;52.034;5.342;2023-12-14T06:31:18;10.10;68.40
19281;DHT22;9774;52.034;5.342;2023-12-14T06:33:47;10.10;68.40
19281;DHT22;9774;52.034;5.342;2023-12-14T06:36:16;10.10;68.30
19281;DHT22;9774;52.034;5.342;2023-12-14T06:38:44;10.10;68.30
19281;DHT22;9774;52.034;5.342;2023-12-14T06:41:22;10.10;68.10
19281;DHT22;9774;52.034;5.342;2023-12-14T06:43:49;10.10;68.00
19281;DHT22;9774;52.034;5.342;2023-12-14T06:46:16;10.10;68.00
19281;DHT22;9774;52.034;5.342;2023-12-14T06:48:44;10.00;67.80
19281;DHT22;9774;52.034;5.342;2023-12-14T06:51:11;10.00;67.90
19281;DHT22;9774;52.034;5.342;2023-12-14T06:53:40;10.00;68.00
19281;DHT22;9774;52.034;5.342;2023-12-14T06:56:09;10.00;68.00
19281;DHT22;9774;52.034;5.342;2023-12-14T06:58:39;10.00;68.00
19281;DHT22;9774;52.034;5.342;2023-12-14T07:01:07;10.00;67.90
19281;DHT22;9774;52.034;5.342;2023-12-14T07:03:34;10.00;67.90
19281;DHT22;9774;52.034;5.342;2023-12-14T07:06:03;9.90;67.80
19281;DHT22;9774;52.034;5.342;2023-12-14T07:08:30;10.00;67.80
19281;DHT22;9774;52.034;5.342;2023-12-14T07:10:58;9.90;67.80
19281;DHT22;9774;52.034;5.342;2023-12-14T07:13:25;9.90;67.80
19281;DHT22;9774;52.034;5.342;2023-12-14T07:15:53;9.90;67.80
19281;DHT22;9774;52.034;5.342;2023-12-14T07:18:20;9.90;67.70
19281;DHT22;9774;52.034;5.342;2023-12-14T07:20:46;9.90;67.70
19281;DHT22;9774;52.034;5.342;2023-12-14T07:23:13;9.90;67.50
19281;DHT22;9774;52.034;5.342;2023-12-14T07:25:40;9.90;67.50
19281;DHT22;9774;52.034;5.342;2023-12-14T07:28:07;9.80;67.30
19281;DHT22;9774;52.034;5.342;2023-12-14T07:30:34;9.80;67.20
19281;DHT22;9774;52.034;5.342;2023-12-14T07:33:02;9.80;67.30
19281;DHT22;9774;52.034;5.342;2023-12-14T07:35:29;9.80;67.30
19281;DHT22;9774;52.034;5.342;2023-12-14T07:37:56;9.80;67.40
19281;DHT22;9774;52.034;5.342;2023-12-14T07:40:23;9.70;67.40
19281;DHT22;9774;52.034;5.342;2023-12-14T07:42:50;9.70;67.50
19281;DHT22;9774;52.034;5.342;2023-12-14T07:45:17;9.70;67.60
19281;DHT22;9774;52.034;5.342;2023-12-14T07:47:44;9.80;67.60
19281;DHT22;9774;52.034;5.342;2023-12-14T07:50:13;9.80;67.50
19281;DHT22;9774;52.034;5.342;2023-12-14T07:52:40;9.70;67.50
19281;DHT22;9774;52.034;5.342;2023-12-14T07:55:08;9.80;67.60
19281;DHT22;9774;52.034;5.342;2023-12-14T07:57:35;9.70;67.60
19281;DHT22;9774;52.034;5.342;2023-12-14T08:00:02;9.80;67.50
19281;DHT22;9774;52.034;5.342;2023-12-14T08:02:30;9.80;67.40
19281;DHT22;9774;52.034;5.342;2023-12-14T08:04:57;9.80;67.40
19281;DHT22;9774;52.034;5.342;2023-12-14T08:07:25;9.80;67.40
19281;DHT22;9774;52.034;5.342;2023-12-14T08:09:54;9.80;67.20
19281;DHT22;9774;52.034;5.342;2023-12-14T08:12:22;9.70;67.90
19281;DHT22;9774;52.034;5.342;2023-12-14T08:14:50;9.70;67.10
19281;DHT22;9774;52.034;5.342;2023-12-14T08:17:17;9.70;67.00
19281;DHT22;9774;52.034;5.342;2023-12-14T08:19:44;9.70;67.00
19281;DHT22;9774;52.034;5.342;2023-12-14T08:22:12;9.70;66.90
19281;DHT22;9774;52.034;5.342;2023-12-14T08:24:42;9.70;67.00
19281;DHT22;9774;52.034;5.342;2023-12-14T08:27:09;9.70;67.10
19281;DHT22;9774;52.034;5.342;2023-12-14T08:29:36;9.70;66.90
19281;DHT22;9774;52.034;5.342;2023-12-14T08:32:05;9.70;66.90
19281;DHT22;9774;52.034;5.342;2023-12-14T08:34:32;9.70;67.00
19281;DHT22;9774;52.034;5.342;2023-12-14T08:37:00;9.70;67.00
19281;DHT22;9774;52.034;5.342;2023-12-14T08:39:28;9.70;67.00
19281;DHT22;9774;52.034;5.342;2023-12-14T08:41:56;9.70;67.00
19281;DHT22;9774;52.034;5.342;2023-12-14T08:44:23;9.70;67.10
19281;DHT22;9774;52.034;5.342;2023-12-14T08:46:50;9.70;67.20
19281;DHT22;9774;52.034;5.342;2023-12-14T08:49:18;9.70;67.30
19281;DHT22;9774;52.034;5.342;2023-12-14T08:51:45;9.70;67.30
19281;DHT22;9774;52.034;5.342;2023-12-14T08:54:12;9.70;67.30
19281;DHT22;9774;52.034;5.342;2023-12-14T08:56:39;9.80;67.40
19281;DHT22;9774;52.034;5.342;2023-12-14T08:59:07;9.80;67.30
19281;DHT22;9774;52.034;5.342;2023-12-14T09:01:35;9.80;67.30
19281;DHT22;9774;52.034;5.342;2023-12-14T09:04:02;9.80;67.20
19281;DHT22;9774;52.034;5.342;2023-12-14T09:06:29;9.80;67.20
19281;DHT22;9774;52.034;5.342;2023-12-14T09:08:56;9.80;67.10
19281;DHT22;9774;52.034;5.342;2023-12-14T09:11:24;9.90;67.00
19281;DHT22;9774;52.034;5.342;2023-12-14T09:13:51;9.90;67.00
19281;DHT22;9774;52.034;5.342;2023-12-14T09:16:19;9.90;67.00
19281;DHT22;9774;52.034;5.342;2023-12-14T09:18:46;9.90;67.00
19281;DHT22;9774;52.034;5.342;2023-12-14T09:21:13;9.90;67.10
19281;DHT22;9774;52.034;5.342;2023-12-14T09:23:41;9.90;67.10
19281;DHT22;9774;52.034;5.342;2023-12-14T09:26:08;9.90;67.00
19281;DHT22;9774;52.034;5.342;2023-12-14T09:28:36;10.00;67.10
19281;DHT22;9774;52.034;5.342;2023-12-14T09:31:03;10.00;67.10
19281;DHT22;9774;52.034;5.342;2023-12-14T09:33:32;10.00;67.10
19281;DHT22;9774;52.034;5.342;2023-12-14T09:35:59;10.00;67.10
19281;DHT22;9774;52.034;5.342;2023-12-14T09:38:26;10.00;67.10
19281;DHT22;9774;52.034;5.342;2023-12-14T09:40:53;10.10;67.10
19281;DHT22;9774;52.034;5.342;2023-12-14T09:43:20;10.10;67.20
19281;DHT22;9774;52.034;5.342;2023-12-14T09:45:49;10.10;67.10
19281;DHT22;9774;52.034;5.342;2023-12-14T09:48:18;10.10;67.10
19281;DHT22;9774;52.034;5.342;2023-12-14T09:50:48;10.20;67.10
19281;DHT22;9774;52.034;5.342;2023-12-14T09:53:16;10.20;67.00
19281;DHT22;9774;52.034;5.342;2023-12-14T09:55:43;10.20;67.10
19281;DHT22;9774;52.034;5.342;2023-12-14T09:58:10;10.20;67.10
19281;DHT22;9774;52.034;5.342;2023-12-14T10:00:39;10.20;67.10
19281;DHT22;9774;52.034;5.342;2023-12-14T10:03:18;10.30;67.00
19281;DHT22;9774;52.034;5.342;2023-12-14T10:05:49;10.30;66.80
19281;DHT22;9774;52.034;5.342;2023-12-14T10:08:16;10.30;66.80
19281;DHT22;9774;52.034;5.342;2023-12-14T10:10:43;10.30;66.70
19281;DHT22;9774;52.034;5.342;2023-12-14T10:13:10;10.30;66.70
19281;DHT22;9774;52.034;5.342;2023-12-14T10:15:41;10.30;66.80
19281;DHT22;9774;52.034;5.342;2023-12-14T10:18:08;10.40;66.80
19281;DHT22;9774;52.034;5.342;2023-12-14T10:20:35;10.40;67.00
19281;DHT22;9774;52.034;5.342;2023-12-14T10:23:06;10.40;67.00
19281;DHT22;9774;52.034;5.342;2023-12-14T10:25:35;10.50;67.10
19281;DHT22;9774;52.034;5.342;2023-12-14T10:28:03;10.60;67.90
19281;DHT22;9774;52.034;5.342;2023-12-14T10:30:30;10.60;67.10
19281;DHT22;9774;52.034;5.342;2023-12-14T10:32:57;10.60;67.00
19281;DHT22;9774;52.034;5.342;2023-12-14T10:35:24;10.70;66.80
19281;DHT22;9774;52.034;5.342;2023-12-14T10:37:52;10.70;66.70
19281;DHT22;9774;52.034;5.342;2023-12-14T10:40:22;10.70;66.50
19281;DHT22;9774;52.034;5.342;2023-12-14T10:42:51;10.80;66.70
19281;DHT22;9774;52.034;5.342;2023-12-14T10:45:21;10.80;66.60
19281;DHT22;9774;52.034;5.342;2023-12-14T10:47:51;10.80;66.30
19281;DHT22;9774;52.034;5.342;2023-12-14T10:50:19;10.80;66.20
19281;DHT22;9774;52.034;5.342;2023-12-14T10:52:48;10.90;66.30
19281;DHT22;9774;52.034;5.342;2023-12-14T10:55:20;10.90;66.30
19281;DHT22;9774;52.034;5.342;2023-12-14T10:57:53;10.90;66.20
19281;DHT22;9774;52.034;5.342;2023-12-14T11:00:20;10.90;66.10
19281;DHT22;9774;52.034;5.342;2023-12-14T11:02:47;10.90;65.90
19281;DHT22;9774;52.034;5.342;2023-12-14T11:05:16;10.90;65.80
19281;DHT22;9774;52.034;5.342;2023-12-14T11:07:50;11.00;65.80
19281;DHT22;9774;52.034;5.342;2023-12-14T11:10:21;10.90;65.70
19281;DHT22;9774;52.034;5.342;2023-12-14T11:12:55;11.00;65.70
19281;DHT22;9774;52.034;5.342;2023-12-14T11:15:24;11.00;65.70
19281;DHT22;9774;52.034;5.342;2023-12-14T11:18:19;11.00;65.60
19281;DHT22;9774;52.034;5.342;2023-12-14T11:20:52;11.00;65.30
19281;DHT22;9774;52.034;5.342;2023-12-14T11:23:32;11.00;65.60
19281;DHT22;9774;52.034;5.342;2023-12-14T11:26:04;11.10;65.50
19281;DHT22;9774;52.034;5.342;2023-12-14T11:28:35;11.00;65.60
19281;DHT22;9774;52.034;5.342;2023-12-14T11:31:03;11.10;65.70
19281;DHT22;9774;52.034;5.342;2023-12-14T11:33:32;11.10;65.70
19281;DHT22;9774;52.034;5.342;2023-12-14T11:36:01;11.20;65.80
19281;DHT22;9774;52.034;5.342;2023-12-14T11:38:30;11.20;65.90
19281;DHT22;9774;52.034;5.342;2023-12-14T11:40:58;11.20;65.90
19281;DHT22;9774;52.034;5.342;2023-12-14T11:43:27;11.30;65.90
19281;DHT22;9774;52.034;5.342;2023-12-14T11:45:54;11.30;65.80
19281;DHT22;9774;52.034;5.342;2023-12-14T11:48:22;11.30;65.50
19281;DHT22;9774;52.034;5.342;2023-12-14T11:50:49;11.40;65.60
19281;DHT22;9774;52.034;5.342;2023-12-14T11:53:16;11.40;65.60
19281;DHT22;9774;52.034;5.342;2023-12-14T11:55:45;11.50;65.50
19281;DHT22;9774;52.034;5.342;2023-12-14T11:58:16;11.60;65.50
19281;DHT22;9774;52.034;5.342;2023-12-14T12:00:45;11.60;65.50
19281;DHT22;9774;52.034;5.342;2023-12-14T12:03:14;11.60;65.50
19281;DHT22;9774;52.034;5.342;2023-12-14T12:05:44;11.70;65.50
19281;DHT22;9774;52.034;5.342;2023-12-14T12:08:12;11.70;65.30
19281;DHT22;9774;52.034;5.342;2023-12-14T12:10:42;11.80;65.20
19281;DHT22;9774;52.034;5.342;2023-12-14T12:13:12;11.80;65.10
19281;DHT22;9774;52.034;5.342;2023-12-14T12:15:40;11.80;64.90
19281;DHT22;9774;52.034;5.342;2023-12-14T12:18:10;11.90;64.80
19281;DHT22;9774;52.034;5.342;2023-12-14T12:20:38;11.90;64.80
19281;DHT22;9774;52.034;5.342;2023-12-14T12:23:05;11.90;64.60
19281;DHT22;9774;52.034;5.342;2023-12-14T12:25:33;11.90;64.40
19281;DHT22;9774;52.034;5.342;2023-12-14T12:28:02;11.90;64.30
19281;DHT22;9774;52.034;5.342;2023-12-14T12:30:30;11.90;64.30
19281;DHT22;9774;52.034;5.342;2023-12-14T12:32:57;11.90;64.20
19281;DHT22;9774;52.034;5.342;2023-12-14T12:35:25;11.90;64.20
19281;DHT22;9774;52.034;5.342;2023-12-14T12:37:56;11.90;64.20
19281;DHT22;9774;52.034;5.342;2023-12-14T12:40:24;11.90;65.00
19281;DHT22;9774;52.034;5.342;2023-12-14T12:42:52;11.90;64.40
19281;DHT22;9774;52.034;5.342;2023-12-14T12:45:19;11.90;64.30
19281;DHT22;9774;52.034;5.342;2023-12-14T12:47:48;11.90;64.20
19281;DHT22;9774;52.034;5.342;2023-12-14T12:50:15;11.90;64.20
19281;DHT22;9774;52.034;5.342;2023-12-14T12:52:43;11.90;64.00
19281;DHT22;9774;52.034;5.342;2023-12-14T12:55:14;11.90;64.00
19281;DHT22;9774;52.034;5.342;2023-12-14T12:57:41;11.90;64.00
19281;DHT22;9774;52.034;5.342;2023-12-14T13:00:09;11.90;63.90
19281;DHT22;9774;52.034;5.342;2023-12-14T13:02:37;11.80;64.00
19281;DHT22;9774;52.034;5.342;2023-12-14T13:05:06;11.90;64.00
19281;DHT22;9774;52.034;5.342;2023-12-14T13:07:34;11.80;63.90
19281;DHT22;9774;52.034;5.342;2023-12-14T13:10:03;11.90;64.00
19281;DHT22;9774;52.034;5.342;2023-12-14T13:12:31;11.80;63.90
19281;DHT22;9774;52.034;5.342;2023-12-14T13:14:59;11.90;64.00
19281;DHT22;9774;52.034;5.342;2023-12-14T13:17:26;11.90;64.00
19281;DHT22;9774;52.034;5.342;2023-12-14T13:19:53;11.90;64.70
19281;DHT22;9774;52.034;5.342;2023-12-14T13:22:20;11.90;64.10
19281;DHT22;9774;52.034;5.342;2023-12-14T13:24:47;11.90;64.00
19281;DHT22;9774;52.034;5.342;2023-12-14T13:27:16;11.90;64.00
19281;DHT22;9774;52.034;5.342;2023-12-14T13:29:43;11.90;63.80
19281;DHT22;9774;52.034;5.342;2023-12-14T13:32:10;11.90;63.90
19281;DHT22;9774;52.034;5.342;2023-12-14T13:34:38;11.90;63.90
19281;DHT22;9774;52.034;5.342;2023-12-14T13:37:05;11.90;63.90
19281;DHT22;9774;52.034;5.342;2023-12-14T13:39:34;11.90;64.70
19281;DHT22;9774;52.034;5.342;2023-12-14T13:42:04;11.90;64.10
19281;DHT22;9774;52.034;5.342;2023-12-14T13:44:33;11.90;64.40
19281;DHT22;9774;52.034;5.342;2023-12-14T13:47:00;12.00;64.50
19281;DHT22;9774;52.034;5.342;2023-12-14T13:49:27;12.00;64.50
19281;DHT22;9774;52.034;5.342;2023-12-14T13:51:54;12.10;64.40
19281;DHT22;9774;52.034;5.342;2023-12-14T13:54:21;12.10;64.10
19281;DHT22;9774;52.034;5.342;2023-12-14T13:56:48;12.10;63.90
19281;DHT22;9774;52.034;5.342;2023-12-14T13:59:15;12.20;63.80
19281;DHT22;9774;52.034;5.342;2023-12-14T14:01:43;12.10;63.60
19281;DHT22;9774;52.034;5.342;2023-12-14T14:04:10;12.20;63.60
19281;DHT22;9774;52.034;5.342;2023-12-14T14:06:37;12.10;63.40
19281;DHT22;9774;52.034;5.342;2023-12-14T14:09:04;12.10;63.50
19281;DHT22;9774;52.034;5.342;2023-12-14T14:11:31;12.10;63.50
19281;DHT22;9774;52.034;5.342;2023-12-14T14:13:57;12.10;63.60
19281;DHT22;9774;52.034;5.342;2023-12-14T14:16:24;12.10;63.50
19281;DHT22;9774;52.034;5.342;2023-12-14T14:18:53;12.10;63.50
19281;DHT22;9774;52.034;5.342;2023-12-14T14:21:20;12.00;63.40
19281;DHT22;9774;52.034;5.342;2023-12-14T14:23:47;12.00;63.40
19281;DHT22;9774;52.034;5.342;2023-12-14T14:26:14;12.00;63.50
19281;DHT22;9774;52.034;5.342;2023-12-14T14:28:41;12.00;63.50
19281;DHT22;9774;52.034;5.342;2023-12-14T14:31:08;12.00;63.50
19281;DHT22;9774;52.034;5.342;2023-12-14T14:33:35;11.90;63.40
19281;DHT22;9774;52.034;5.342;2023-12-14T14:36:04;11.90;63.40
19281;DHT22;9774;52.034;5.342;2023-12-14T14:38:31;11.80;63.50
19281;DHT22;9774;52.034;5.342;2023-12-14T14:40:58;11.80;63.40
19281;DHT22;9774;52.034;5.342;2023-12-14T14:43:26;11.80;63.30
19281;DHT22;9774;52.034;5.342;2023-12-14T14:45:54;11.80;63.40
19281;DHT22;9774;52.034;5.342;2023-12-14T14:48:20;11.70;63.40
19281;DHT22;9774;52.034;5.342;2023-12-14T14:50:47;11.70;63.50
19281;DHT22;9774;52.034;5.342;2023-12-14T14:53:16;11.60;63.60
19281;DHT22;9774;52.034;5.342;2023-12-14T14:55:43;11.60;63.60
19281;DHT22;9774;52.034;5.342;2023-12-14T14:58:11;11.60;63.70
19281;DHT22;9774;52.034;5.342;2023-12-14T15:00:38;11.60;63.70
19281;DHT22;9774;52.034;5.342;2023-12-14T15:03:05;11.60;63.80
19281;DHT22;9774;52.034;5.342;2023-12-14T15:05:35;11.50;63.80
19281;DHT22;9774;52.034;5.342;2023-12-14T15:08:02;11.50;63.80
19281;DHT22;9774;52.034;5.342;2023-12-14T15:10:32;11.50;63.90
19281;DHT22;9774;52.034;5.342;2023-12-14T15:13:00;11.50;63.90
19281;DHT22;9774;52.034;5.342;2023-12-14T15:15:27;11.50;63.90
19281;DHT22;9774;52.034;5.342;2023-12-14T15:17:54;11.40;64.00
19281;DHT22;9774;52.034;5.342;2023-12-14T15:20:21;11.40;64.10
19281;DHT22;9774;52.034;5.342;2023-12-14T15:22:48;11.40;64.10
19281;DHT22;9774;52.034;5.342;2023-12-14T15:25:15;11.40;64.10
19281;DHT22;9774;52.034;5.342;2023-12-14T15:27:44;11.40;64.10
19281;DHT22;9774;52.034;5.342;2023-12-14T15:30:12;11.40;64.20
19281;DHT22;9774;52.034;5.342;2023-12-14T15:32:41;11.40;64.30
19281;DHT22;9774;52.034;5.342;2023-12-14T15:35:10;11.40;64.30
19281;DHT22;9774;52.034;5.342;2023-12-14T15:37:37;11.40;64.40
19281;DHT22;9774;52.034;5.342;2023-12-14T15:40:06;11.30;64.90
19281;DHT22;9774;52.034;5.342;2023-12-14T15:42:35;11.30;64.30
19281;DHT22;9774;52.034;5.342;2023-12-14T15:45:04;11.30;64.30
19281;DHT22;9774;52.034;5.342;2023-12-14T15:47:31;11.30;64.30
19281;DHT22;9774;52.034;5.342;2023-12-14T15:49:58;11.30;64.30